sensor_id;sensor_type;location;lat;lon;timestamp;temperature;humidity
11609;DHT22;5860;52.018;8.536;2024-03-02T00:01:36;7.00;99.90
11609;DHT22;5860;52.018;8.536;2024-03-02T00:04:04;7.00;99.90
11609;DHT22;5860;52.018;8.536;2024-03-02T00:06:34;7.00;99.90
11609;DHT22;5860;52.018;8.536;2024-03-02T00:09:01;6.90;99.90
11609;DHT22;5860;52.018;8.536;2024-03-02T00:11:29;6.90;1.00
11609;DHT22;5860;52.018;8.536;2024-03-02T00:13:56;6.90;99.90
11609;DHT22;5860;52.018;8.536;2024-03-02T00:16:23;7.00;99.90
11609;DHT22;5860;52.018;8.536;2024-03-02T00:18:51;7.00;99.90
11609;DHT22;5860;52.018;8.536;2024-03-02T00:21:18;7.00;1.00
11609;DHT22;5860;52.018;8.536;2024-03-02T00:23:49;6.90;99.90
11609;DHT22;5860;52.018;8.536;2024-03-02T00:26:19;6.90;1.00
11609;DHT22;5860;52.018;8.536;2024-03-02T00:28:46;6.90;34.00
11609;DHT22;5860;52.018;8.536;2024-03-02T00:31:13;6.90;99.90
11609;DHT22;5860;52.018;8.536;2024-03-02T00:33:47;6.90;1.00
11609;DHT22;5860;52.018;8.536;2024-03-02T00:36:16;7.00;1.00
11609;DHT22;5860;52.018;8.536;2024-03-02T00:38:52;7.00;99.90
11609;DHT22;5860;52.018;8.536;2024-03-02T00:41:32;7.00;99.90
11609;DHT22;5860;52.018;8.536;2024-03-02T00:44:04;7.00;99.90
11609;DHT22;5860;52.018;8.536;2024-03-02T00:49:05;6.90;1.00
11609;DHT22;5860;52.018;8.536;2024-03-02T00:51:33;7.00;99.90
11609;DHT22;5860;52.018;8.536;2024-03-02T00:54:05;7.00;99.90
11609;DHT22;5860;52.018;8.536;2024-03-02T00:56:33;6.90;99.90
11609;DHT22;5860;52.018;8.536;2024-03-02T00:59:02;7.00;99.90
11609;DHT22;5860;52.018;8.536;2024-03-02T01:01:29;7.00;1.00
11609;DHT22;5860;52.018;8.536;2024-03-02T01:03:56;7.00;8.70
11609;DHT22;5860;52.018;8.536;2024-03-02T01:06:23;7.00;1.00
11609;DHT22;5860;52.018;8.536;2024-03-02T01:08:50;7.00;99.90
11609;DHT22;5860;52.018;8.536;2024-03-02T01:11:19;6.90;1.00
11609;DHT22;5860;52.018;8.536;2024-03-02T01:13:50;6.90;99.90
11609;DHT22;5860;52.018;8.536;2024-03-02T01:16:17;6.90;99.90
11609;DHT22;5860;52.018;8.536;2024-03-02T01:18:44;6.90;99.90
11609;DHT22;5860;52.018;8.536;2024-03-02T01:21:12;6.80;99.90
11609;DHT22;5860;52.018;8.536;2024-03-02T01:23:39;6.70;1.00
11609;DHT22;5860;52.018;8.536;2024-03-02T01:26:05;6.60;99.90
11609;DHT22;5860;52.018;8.536;2024-03-02T01:28:33;6.60;24.30
11609;DHT22;5860;52.018;8.536;2024-03-02T01:31:00;6.70;99.90
11609;DHT22;5860;52.018;8.536;2024-03-02T01:33:28;6.70;1.00
11609;DHT22;5860;52.018;8.536;2024-03-02T01:35:56;6.70;99.90
11609;DHT22;5860;52.018;8.536;2024-03-02T01:38:22;7.80;1.00
11609;DHT22;5860;52.018;8.536;2024-03-02T01:40:49;6.70;99.90
11609;DHT22;5860;52.018;8.536;2024-03-02T01:43:16;6.70;99.90
11609;DHT22;5860;52.018;8.536;2024-03-02T01:45:43;6.70;99.90
11609;DHT22;5860;52.018;8.536;2024-03-02T01:48:10;6.60;1.00
11609;DHT22;5860;52.018;8.536;2024-03-02T01:50:37;6.70;99.90
11609;DHT22;5860;52.018;8.536;2024-03-02T01:53:04;6.70;1.00
11609;DHT22;5860;52.018;8.536;2024-03-02T01:55:31;6.60;99.90
11609;DHT22;5860;52.018;8.536;2024-03-02T01:58:00;6.70;99.90
11609;DHT22;5860;52.018;8.536;2024-03-02T02:00:27;6.60;99.90
11609;DHT22;5860;52.018;8.536;2024-03-02T02:02:55;6.70;99.90
11609;DHT22;5860;52.018;8.536;2024-03-02T02:05:22;6.70;1.00
11609;DHT22;5860;52.018;8.536;2024-03-02T02:07:49;6.60;1.00
11609;DHT22;5860;52.018;8.536;2024-03-02T02:10:16;6.80;1.00
11609;DHT22;5860;52.018;8.536;2024-03-02T02:12:43;6.80;1.00
11609;DHT22;5860;52.018;8.536;2024-03-02T02:15:27;6.70;1.00
11609;DHT22;5860;52.018;8.536;2024-03-02T02:17:55;6.70;1.00
11609;DHT22;5860;52.018;8.536;2024-03-02T02:20:22;6.80;99.90
11609;DHT22;5860;52.018;8.536;2024-03-02T02:22:55;6.80;1.00
11609;DHT22;5860;52.018;8.536;2024-03-02T02:25:22;6.80;99.90
11609;DHT22;5860;52.018;8.536;2024-03-02T02:27:49;6.90;1.00
11609;DHT22;5860;52.018;8.536;2024-03-02T02:30:24;6.80;1.00
11609;DHT22;5860;52.018;8.536;2024-03-02T02:32:51;6.90;40.90
11609;DHT22;5860;52.018;8.536;2024-03-02T02:35:19;6.80;1.00
11609;DHT22;5860;52.018;8.536;2024-03-02T02:37:46;6.80;99.90
11609;DHT22;5860;52.018;8.536;2024-03-02T02:40:14;6.70;59.50
11609;DHT22;5860;52.018;8.536;2024-03-02T02:42:41;6.90;99.90
11609;DHT22;5860;52.018;8.536;2024-03-02T02:45:07;6.90;75.70
11609;DHT22;5860;52.018;8.536;2024-03-02T02:47:35;7.00;1.00
11609;DHT22;5860;52.018;8.536;2024-03-02T02:50:07;7.00;1.00
11609;DHT22;5860;52.018;8.536;2024-03-02T02:52:35;7.00;1.00
11609;DHT22;5860;52.018;8.536;2024-03-02T02:55:04;7.00;1.00
11609;DHT22;5860;52.018;8.536;2024-03-02T02:57:34;6.90;99.90
11609;DHT22;5860;52.018;8.536;2024-03-02T03:00:05;6.90;99.90
11609;DHT22;5860;52.018;8.536;2024-03-02T03:02:37;6.90;99.90
11609;DHT22;5860;52.018;8.536;2024-03-02T03:05:06;7.00;84.50
11609;DHT22;5860;52.018;8.536;2024-03-02T03:07:33;6.90;1.00
11609;DHT22;5860;52.018;8.536;2024-03-02T03:10:04;7.00;1.00
11609;DHT22;5860;52.018;8.536;2024-03-02T03:12:31;7.10;99.90
11609;DHT22;5860;52.018;8.536;2024-03-02T03:14:58;7.10;99.90
11609;DHT22;5860;52.018;8.536;2024-03-02T03:17:26;6.90;1.00
11609;DHT22;5860;52.018;8.536;2024-03-02T03:19:54;6.80;99.90
11609;DHT22;5860;52.018;8.536;2024-03-02T03:22:21;6.90;99.90
11609;DHT22;5860;52.018;8.536;2024-03-02T03:24:48;6.80;1.00
11609;DHT22;5860;52.018;8.536;2024-03-02T03:27:15;6.70;44.30
11609;DHT22;5860;52.018;8.536;2024-03-02T03:29:42;6.80;1.00
11609;DHT22;5860;52.018;8.536;2024-03-02T03:32:09;6.70;1.00
11609;DHT22;5860;52.018;8.536;2024-03-02T03:34:36;6.60;1.00
11609;DHT22;5860;52.018;8.536;2024-03-02T03:37:03;6.60;1.00
11609;DHT22;5860;52.018;8.536;2024-03-02T03:39:30;6.60;19.90
11609;DHT22;5860;52.018;8.536;2024-03-02T03:41:57;6.80;1.00
11609;DHT22;5860;52.018;8.536;2024-03-02T03:44:24;6.70;1.00
11609;DHT22;5860;52.018;8.536;2024-03-02T03:46:51;6.90;99.90
11609;DHT22;5860;52.018;8.536;2024-03-02T03:49:18;6.70;1.00
11609;DHT22;5860;52.018;8.536;2024-03-02T03:51:45;6.70;1.00
11609;DHT22;5860;52.018;8.536;2024-03-02T03:54:12;6.70;1.00
11609;DHT22;5860;52.018;8.536;2024-03-02T03:56:39;6.70;1.00
11609;DHT22;5860;52.018;8.536;2024-03-02T03:59:05;6.80;99.90
11609;DHT22;5860;52.018;8.536;2024-03-02T04:01:32;6.90;14.00
11609;DHT22;5860;52.018;8.536;2024-03-02T04:04:00;6.90;1.00
11609;DHT22;5860;52.018;8.536;2024-03-02T04:06:30;6.80;99.90
11609;DHT22;5860;52.018;8.536;2024-03-02T04:08:57;6.80;1.00
11609;DHT22;5860;52.018;8.536;2024-03-02T04:11:24;6.80;99.90
11609;DHT22;5860;52.018;8.536;2024-03-02T04:13:51;6.70;99.90
11609;DHT22;5860;52.018;8.536;2024-03-02T04:16:19;6.80;99.90
11609;DHT22;5860;52.018;8.536;2024-03-02T04:18:46;6.70;99.90
11609;DHT22;5860;52.018;8.536;2024-03-02T04:21:13;6.80;1.00
11609;DHT22;5860;52.018;8.536;2024-03-02T04:23:40;6.80;1.00
11609;DHT22;5860;52.018;8.536;2024-03-02T04:26:07;6.80;1.00
11609;DHT22;5860;52.018;8.536;2024-03-02T04:28:34;6.80;1.00
11609;DHT22;5860;52.018;8.536;2024-03-02T04:31:01;6.80;1.00
11609;DHT22;5860;52.018;8.536;2024-03-02T04:33:28;6.70;99.90
11609;DHT22;5860;52.018;8.536;2024-03-02T04:35:55;6.70;99.90
11609;DHT22;5860;52.018;8.536;2024-03-02T04:38:22;6.70;1.00
11609;DHT22;5860;52.018;8.536;2024-03-02T04:40:49;6.70;1.00
11609;DHT22;5860;52.018;8.536;2024-03-02T04:43:16;6.70;99.90
11609;DHT22;5860;52.018;8.536;2024-03-02T04:45:43;6.70;99.90
11609;DHT22;5860;52.018;8.536;2024-03-02T04:48:10;6.80;99.90
11609;DHT22;5860;52.018;8.536;2024-03-02T04:50:38;6.80;99.90
11609;DHT22;5860;52.018;8.536;2024-03-02T04:53:04;6.80;99.90
11609;DHT22;5860;52.018;8.536;2024-03-02T04:55:31;6.70;99.90
11609;DHT22;5860;52.018;8.536;2024-03-02T04:58:01;6.70;1.00
11609;DHT22;5860;52.018;8.536;2024-03-02T05:00:28;6.80;99.90
11609;DHT22;5860;52.018;8.536;2024-03-02T05:02:55;6.70;99.90
11609;DHT22;5860;52.018;8.536;2024-03-02T05:05:22;6.60;1.00
11609;DHT22;5860;52.018;8.536;2024-03-02T05:07:49;6.70;1.00
11609;DHT22;5860;52.018;8.536;2024-03-02T05:10:16;6.80;1.00
11609;DHT22;5860;52.018;8.536;2024-03-02T05:12:43;6.70;99.90
11609;DHT22;5860;52.018;8.536;2024-03-02T05:15:12;6.50;99.90
11609;DHT22;5860;52.018;8.536;2024-03-02T05:17:40;6.60;99.90
11609;DHT22;5860;52.018;8.536;2024-03-02T05:20:09;6.50;1.00
11609;DHT22;5860;52.018;8.536;2024-03-02T05:22:37;6.50;1.00
11609;DHT22;5860;52.018;8.536;2024-03-02T05:25:06;6.50;1.00
11609;DHT22;5860;52.018;8.536;2024-03-02T05:27:33;6.50;1.00
11609;DHT22;5860;52.018;8.536;2024-03-02T05:30:00;6.50;1.00
11609;DHT22;5860;52.018;8.536;2024-03-02T05:32:27;6.50;1.00
11609;DHT22;5860;52.018;8.536;2024-03-02T05:34:54;6.50;1.00
11609;DHT22;5860;52.018;8.536;2024-03-02T05:37:21;6.50;1.00
11609;DHT22;5860;52.018;8.536;2024-03-02T05:39:48;6.60;1.00
11609;DHT22;5860;52.018;8.536;2024-03-02T05:42:16;6.50;1.00
11609;DHT22;5860;52.018;8.536;2024-03-02T05:44:46;6.60;1.00
11609;DHT22;5860;52.018;8.536;2024-03-02T05:47:13;6.60;1.00
11609;DHT22;5860;52.018;8.536;2024-03-02T05:49:40;6.50;1.00
11609;DHT22;5860;52.018;8.536;2024-03-02T05:52:07;6.60;1.00
11609;DHT22;5860;52.018;8.536;2024-03-02T05:54:34;6.50;1.00
11609;DHT22;5860;52.018;8.536;2024-03-02T05:57:01;6.60;1.00
11609;DHT22;5860;52.018;8.536;2024-03-02T05:59:44;6.60;1.00
11609;DHT22;5860;52.018;8.536;2024-03-02T06:02:11;6.60;99.90
11609;DHT22;5860;52.018;8.536;2024-03-02T06:04:38;6.50;1.00
11609;DHT22;5860;52.018;8.536;2024-03-02T06:07:05;6.50;1.00
11609;DHT22;5860;52.018;8.536;2024-03-02T06:09:32;6.50;1.00
11609;DHT22;5860;52.018;8.536;2024-03-02T06:11:59;6.40;1.00
11609;DHT22;5860;52.018;8.536;2024-03-02T06:14:26;6.60;1.00
11609;DHT22;5860;52.018;8.536;2024-03-02T06:16:53;6.50;1.00
11609;DHT22;5860;52.018;8.536;2024-03-02T06:19:19;6.60;1.00
11609;DHT22;5860;52.018;8.536;2024-03-02T06:21:47;6.50;1.00
11609;DHT22;5860;52.018;8.536;2024-03-02T06:24:14;6.50;1.00
11609;DHT22;5860;52.018;8.536;2024-03-02T06:26:41;6.50;1.00
11609;DHT22;5860;52.018;8.536;2024-03-02T06:29:08;6.60;1.00
11609;DHT22;5860;52.018;8.536;2024-03-02T06:31:35;6.60;1.00
11609;DHT22;5860;52.018;8.536;2024-03-02T06:34:02;6.60;99.90
11609;DHT22;5860;52.018;8.536;2024-03-02T06:36:30;6.60;99.90
11609;DHT22;5860;52.018;8.536;2024-03-02T06:38:57;6.60;99.90
11609;DHT22;5860;52.018;8.536;2024-03-02T06:41:24;6.60;99.90
11609;DHT22;5860;52.018;8.536;2024-03-02T06:43:51;6.60;99.90
11609;DHT22;5860;52.018;8.536;2024-03-02T06:46:26;6.60;99.90
11609;DHT22;5860;52.018;8.536;2024-03-02T06:48:53;6.70;99.90
11609;DHT22;5860;52.018;8.536;2024-03-02T06:51:20;6.70;40.50
11609;DHT22;5860;52.018;8.536;2024-03-02T06:53:47;6.70;1.00
11609;DHT22;5860;52.018;8.536;2024-03-02T06:56:14;6.70;1.00
11609;DHT22;5860;52.018;8.536;2024-03-02T06:58:41;6.80;1.00
11609;DHT22;5860;52.018;8.536;2024-03-02T07:01:09;6.80;99.90
11609;DHT22;5860;52.018;8.536;2024-03-02T07:03:36;6.80;99.90
11609;DHT22;5860;52.018;8.536;2024-03-02T07:06:04;6.80;1.00
11609;DHT22;5860;52.018;8.536;2024-03-02T07:08:31;6.80;99.90
11609;DHT22;5860;52.018;8.536;2024-03-02T07:11:01;6.80;99.90
11609;DHT22;5860;52.018;8.536;2024-03-02T07:13:28;6.90;74.60
11609;DHT22;5860;52.018;8.536;2024-03-02T07:15:54;6.90;1.00
11609;DHT22;5860;52.018;8.536;2024-03-02T07:18:30;6.90;1.00
11609;DHT22;5860;52.018;8.536;2024-03-02T07:20:58;6.90;1.00
11609;DHT22;5860;52.018;8.536;2024-03-02T07:23:26;6.90;1.00
11609;DHT22;5860;52.018;8.536;2024-03-02T07:25:54;7.00;99.90
11609;DHT22;5860;52.018;8.536;2024-03-02T07:28:27;6.90;99.90
11609;DHT22;5860;52.018;8.536;2024-03-02T07:31:00;7.00;1.00
11609;DHT22;5860;52.018;8.536;2024-03-02T07:33:28;7.00;1.00
11609;DHT22;5860;52.018;8.536;2024-03-02T07:35:55;7.00;99.90
11609;DHT22;5860;52.018;8.536;2024-03-02T07:38:23;7.10;99.90
11609;DHT22;5860;52.018;8.536;2024-03-02T07:40:50;7.10;89.80
11609;DHT22;5860;52.018;8.536;2024-03-02T07:43:20;7.10;26.50
11609;DHT22;5860;52.018;8.536;2024-03-02T07:45:47;7.10;30.60
11609;DHT22;5860;52.018;8.536;2024-03-02T07:48:15;7.10;1.00
11609;DHT22;5860;52.018;8.536;2024-03-02T07:50:42;7.20;99.90
11609;DHT22;5860;52.018;8.536;2024-03-02T07:53:09;7.30;1.00
11609;DHT22;5860;52.018;8.536;2024-03-02T07:55:36;7.40;99.90
11609;DHT22;5860;52.018;8.536;2024-03-02T07:58:03;7.50;1.00
11609;DHT22;5860;52.018;8.536;2024-03-02T08:00:30;7.60;99.90
11609;DHT22;5860;52.018;8.536;2024-03-02T08:03:01;7.60;1.00
11609;DHT22;5860;52.018;8.536;2024-03-02T08:05:28;7.80;99.90
11609;DHT22;5860;52.018;8.536;2024-03-02T08:07:54;7.90;1.00
11609;DHT22;5860;52.018;8.536;2024-03-02T08:10:22;8.00;1.00
11609;DHT22;5860;52.018;8.536;2024-03-02T08:12:48;8.10;99.90
11609;DHT22;5860;52.018;8.536;2024-03-02T08:15:15;8.20;99.90
11609;DHT22;5860;52.018;8.536;2024-03-02T08:17:42;8.40;1.00
11609;DHT22;5860;52.018;8.536;2024-03-02T08:20:12;8.40;1.00
11609;DHT22;5860;52.018;8.536;2024-03-02T08:22:39;8.50;99.90
11609;DHT22;5860;52.018;8.536;2024-03-02T08:25:07;8.60;43.80
11609;DHT22;5860;52.018;8.536;2024-03-02T08:27:35;8.60;1.00
11609;DHT22;5860;52.018;8.536;2024-03-02T08:30:03;8.80;1.00
11609;DHT22;5860;52.018;8.536;2024-03-02T08:32:34;8.80;1.00
11609;DHT22;5860;52.018;8.536;2024-03-02T08:35:01;9.00;1.00
11609;DHT22;5860;52.018;8.536;2024-03-02T08:37:28;9.00;99.90
11609;DHT22;5860;52.018;8.536;2024-03-02T08:39:55;9.10;99.90
11609;DHT22;5860;52.018;8.536;2024-03-02T08:42:22;9.20;1.00
11609;DHT22;5860;52.018;8.536;2024-03-02T08:44:49;9.40;1.00
11609;DHT22;5860;52.018;8.536;2024-03-02T08:47:17;9.50;1.00
11609;DHT22;5860;52.018;8.536;2024-03-02T08:49:44;9.60;1.00
11609;DHT22;5860;52.018;8.536;2024-03-02T08:52:11;9.60;1.00
11609;DHT22;5860;52.018;8.536;2024-03-02T08:54:38;9.70;99.90
11609;DHT22;5860;52.018;8.536;2024-03-02T08:57:05;9.80;99.90
11609;DHT22;5860;52.018;8.536;2024-03-02T08:59:33;9.90;99.90
11609;DHT22;5860;52.018;8.536;2024-03-02T09:02:00;9.90;99.90
11609;DHT22;5860;52.018;8.536;2024-03-02T09:04:28;10.00;99.90
11609;DHT22;5860;52.018;8.536;2024-03-02T09:06:59;10.00;99.90
11609;DHT22;5860;52.018;8.536;2024-03-02T09:09:26;10.00;99.90
11609;DHT22;5860;52.018;8.536;2024-03-02T09:11:53;10.00;99.90
11609;DHT22;5860;52.018;8.536;2024-03-02T09:14:22;10.10;99.90
11609;DHT22;5860;52.018;8.536;2024-03-02T09:16:49;10.20;26.90
11609;DHT22;5860;52.018;8.536;2024-03-02T09:19:16;10.20;16.40
11609;DHT22;5860;52.018;8.536;2024-03-02T09:21:43;10.30;1.00
11609;DHT22;5860;52.018;8.536;2024-03-02T09:24:10;10.40;1.00
11609;DHT22;5860;52.018;8.536;2024-03-02T09:26:40;10.60;1.00
11609;DHT22;5860;52.018;8.536;2024-03-02T09:29:07;10.60;1.00
11609;DHT22;5860;52.018;8.536;2024-03-02T09:31:40;10.60;1.00
11609;DHT22;5860;52.018;8.536;2024-03-02T09:34:07;10.70;1.00
11609;DHT22;5860;52.018;8.536;2024-03-02T09:36:34;10.80;1.00
11609;DHT22;5860;52.018;8.536;2024-03-02T09:39:02;10.80;1.00
11609;DHT22;5860;52.018;8.536;2024-03-02T09:41:31;11.00;1.00
11609;DHT22;5860;52.018;8.536;2024-03-02T09:44:00;11.10;1.00
11609;DHT22;5860;52.018;8.536;2024-03-02T09:46:27;11.10;99.90
11609;DHT22;5860;52.018;8.536;2024-03-02T09:48:54;11.20;99.90
11609;DHT22;5860;52.018;8.536;2024-03-02T09:51:21;11.10;99.90
11609;DHT22;5860;52.018;8.536;2024-03-02T09:53:49;11.10;99.90
11609;DHT22;5860;52.018;8.536;2024-03-02T09:56:16;11.20;99.90
11609;DHT22;5860;52.018;8.536;2024-03-02T09:58:45;11.20;99.90
11609;DHT22;5860;52.018;8.536;2024-03-02T10:01:12;11.10;99.90
11609;DHT22;5860;52.018;8.536;2024-03-02T10:03:39;11.00;99.90
11609;DHT22;5860;52.018;8.536;2024-03-02T10:06:24;11.10;99.90
11609;DHT22;5860;52.018;8.536;2024-03-02T10:08:52;11.10;99.90
11609;DHT22;5860;52.018;8.536;2024-03-02T10:11:27;11.20;99.90
11609;DHT22;5860;52.018;8.536;2024-03-02T10:14:07;11.00;99.90
11609;DHT22;5860;52.018;8.536;2024-03-02T10:16:39;11.10;99.90
11609;DHT22;5860;52.018;8.536;2024-03-02T10:19:16;11.10;99.90
11609;DHT22;5860;52.018;8.536;2024-03-02T10:21:54;11.20;99.90
11609;DHT22;5860;52.018;8.536;2024-03-02T10:24:22;11.30;99.90
11609;DHT22;5860;52.018;8.536;2024-03-02T10:26:50;11.50;99.90
11609;DHT22;5860;52.018;8.536;2024-03-02T10:29:17;11.50;99.90
11609;DHT22;5860;52.018;8.536;2024-03-02T10:31:46;11.50;99.90
11609;DHT22;5860;52.018;8.536;2024-03-02T10:34:13;11.60;99.90
11609;DHT22;5860;52.018;8.536;2024-03-02T10:36:42;11.70;99.90
11609;DHT22;5860;52.018;8.536;2024-03-02T10:39:09;11.80;99.90
11609;DHT22;5860;52.018;8.536;2024-03-02T10:41:37;11.50;99.90
11609;DHT22;5860;52.018;8.536;2024-03-02T10:44:06;11.80;99.90
11609;DHT22;5860;52.018;8.536;2024-03-02T10:46:35;11.90;99.90
11609;DHT22;5860;52.018;8.536;2024-03-02T10:49:03;11.80;99.90
11609;DHT22;5860;52.018;8.536;2024-03-02T10:51:34;11.80;99.90
11609;DHT22;5860;52.018;8.536;2024-03-02T10:54:04;11.70;99.90
11609;DHT22;5860;52.018;8.536;2024-03-02T10:56:43;11.90;99.90
11609;DHT22;5860;52.018;8.536;2024-03-02T10:59:32;12.00;99.90
11609;DHT22;5860;52.018;8.536;2024-03-02T11:02:00;12.00;99.90
11609;DHT22;5860;52.018;8.536;2024-03-02T11:04:32;12.20;96.00
11609;DHT22;5860;52.018;8.536;2024-03-02T11:07:09;12.00;50.00
11609;DHT22;5860;52.018;8.536;2024-03-02T11:09:41;12.20;56.50
11609;DHT22;5860;52.018;8.536;2024-03-02T11:12:27;12.20;22.20
11609;DHT22;5860;52.018;8.536;2024-03-02T11:14:56;12.30;1.00
11609;DHT22;5860;52.018;8.536;2024-03-02T11:17:23;12.40;1.00
11609;DHT22;5860;52.018;8.536;2024-03-02T11:19:50;12.50;1.00
11609;DHT22;5860;52.018;8.536;2024-03-02T11:22:19;12.60;1.00
11609;DHT22;5860;52.018;8.536;2024-03-02T11:24:50;12.70;1.00
11609;DHT22;5860;52.018;8.536;2024-03-02T11:35:27;12.90;1.00
11609;DHT22;5860;52.018;8.536;2024-03-02T11:37:57;12.70;1.00
11609;DHT22;5860;52.018;8.536;2024-03-02T11:40:25;12.60;1.00
11609;DHT22;5860;52.018;8.536;2024-03-02T11:42:53;12.80;1.00
11609;DHT22;5860;52.018;8.536;2024-03-02T11:45:37;12.80;1.00
11609;DHT22;5860;52.018;8.536;2024-03-02T11:48:12;12.70;1.00
11609;DHT22;5860;52.018;8.536;2024-03-02T11:50:42;12.80;1.00
11609;DHT22;5860;52.018;8.536;2024-03-02T11:53:13;12.90;1.00
11609;DHT22;5860;52.018;8.536;2024-03-02T11:55:40;13.10;1.00
11609;DHT22;5860;52.018;8.536;2024-03-02T11:58:07;13.10;1.00
11609;DHT22;5860;52.018;8.536;2024-03-02T12:00:34;13.40;1.00
11609;DHT22;5860;52.018;8.536;2024-03-02T12:03:04;12.90;1.00
11609;DHT22;5860;52.018;8.536;2024-03-02T12:05:32;13.10;1.00
11609;DHT22;5860;52.018;8.536;2024-03-02T12:08:00;13.10;1.00
11609;DHT22;5860;52.018;8.536;2024-03-02T12:10:28;13.10;1.00
11609;DHT22;5860;52.018;8.536;2024-03-02T12:15:32;13.00;1.00
11609;DHT22;5860;52.018;8.536;2024-03-02T12:18:01;13.00;1.00
11609;DHT22;5860;52.018;8.536;2024-03-02T12:20:31;13.00;1.00
11609;DHT22;5860;52.018;8.536;2024-03-02T12:22:59;13.10;1.00
11609;DHT22;5860;52.018;8.536;2024-03-02T12:25:27;13.30;1.00
11609;DHT22;5860;52.018;8.536;2024-03-02T12:27:56;13.20;1.00
11609;DHT22;5860;52.018;8.536;2024-03-02T12:30:23;13.00;1.00
11609;DHT22;5860;52.018;8.536;2024-03-02T12:32:50;13.00;1.00
11609;DHT22;5860;52.018;8.536;2024-03-02T12:35:18;13.10;1.00
11609;DHT22;5860;52.018;8.536;2024-03-02T12:37:49;13.20;1.00
11609;DHT22;5860;52.018;8.536;2024-03-02T12:40:18;13.10;1.00
11609;DHT22;5860;52.018;8.536;2024-03-02T12:42:46;13.20;1.00
11609;DHT22;5860;52.018;8.536;2024-03-02T12:45:13;13.40;1.00
11609;DHT22;5860;52.018;8.536;2024-03-02T12:47:41;13.50;1.00
11609;DHT22;5860;52.018;8.536;2024-03-02T12:50:10;13.60;1.00
11609;DHT22;5860;52.018;8.536;2024-03-02T12:52:37;13.60;1.00
11609;DHT22;5860;52.018;8.536;2024-03-02T12:55:07;13.80;1.00
11609;DHT22;5860;52.018;8.536;2024-03-02T12:57:34;13.70;1.00
11609;DHT22;5860;52.018;8.536;2024-03-02T13:00:03;13.50;1.00
11609;DHT22;5860;52.018;8.536;2024-03-02T13:02:57;13.60;1.00
11609;DHT22;5860;52.018;8.536;2024-03-02T13:05:31;13.70;1.00
11609;DHT22;5860;52.018;8.536;2024-03-02T13:07:59;13.60;1.00
11609;DHT22;5860;52.018;8.536;2024-03-02T13:10:27;13.70;1.00
11609;DHT22;5860;52.018;8.536;2024-03-02T13:12:55;13.80;1.00
11609;DHT22;5860;52.018;8.536;2024-03-02T13:15:22;13.90;1.00
11609;DHT22;5860;52.018;8.536;2024-03-02T13:17:49;13.80;1.00
11609;DHT22;5860;52.018;8.536;2024-03-02T13:20:17;13.90;1.00
11609;DHT22;5860;52.018;8.536;2024-03-02T13:22:46;13.90;1.00
11609;DHT22;5860;52.018;8.536;2024-03-02T13:25:13;14.00;1.00
11609;DHT22;5860;52.018;8.536;2024-03-02T13:27:41;13.80;1.00
11609;DHT22;5860;52.018;8.536;2024-03-02T13:30:08;13.80;1.00
11609;DHT22;5860;52.018;8.536;2024-03-02T13:32:36;13.80;1.00
11609;DHT22;5860;52.018;8.536;2024-03-02T13:35:03;13.80;1.00
11609;DHT22;5860;52.018;8.536;2024-03-02T13:37:31;13.60;1.00
11609;DHT22;5860;52.018;8.536;2024-03-02T13:39:59;13.60;1.00
11609;DHT22;5860;52.018;8.536;2024-03-02T13:42:26;13.50;1.00
11609;DHT22;5860;52.018;8.536;2024-03-02T13:44:54;13.70;1.00
11609;DHT22;5860;52.018;8.536;2024-03-02T13:47:21;13.60;1.00
11609;DHT22;5860;52.018;8.536;2024-03-02T13:49:48;13.70;1.00
11609;DHT22;5860;52.018;8.536;2024-03-02T13:52:16;13.70;1.00
11609;DHT22;5860;52.018;8.536;2024-03-02T13:54:47;13.70;1.00
11609;DHT22;5860;52.018;8.536;2024-03-02T13:57:14;13.60;1.00
11609;DHT22;5860;52.018;8.536;2024-03-02T13:59:42;13.70;1.00
11609;DHT22;5860;52.018;8.536;2024-03-02T14:02:11;13.70;1.00
11609;DHT22;5860;52.018;8.536;2024-03-02T14:04:39;13.80;1.00
11609;DHT22;5860;52.018;8.536;2024-03-02T14:07:06;13.80;1.00
11609;DHT22;5860;52.018;8.536;2024-03-02T14:09:34;13.90;1.00
11609;DHT22;5860;52.018;8.536;2024-03-02T14:12:02;13.90;1.00
11609;DHT22;5860;52.018;8.536;2024-03-02T14:14:29;13.90;1.00
11609;DHT22;5860;52.018;8.536;2024-03-02T14:16:57;13.80;1.00
11609;DHT22;5860;52.018;8.536;2024-03-02T14:19:27;13.80;1.00
11609;DHT22;5860;52.018;8.536;2024-03-02T14:21:54;13.90;1.00
11609;DHT22;5860;52.018;8.536;2024-03-02T14:24:21;13.70;1.00
11609;DHT22;5860;52.018;8.536;2024-03-02T14:26:51;13.70;1.00
11609;DHT22;5860;52.018;8.536;2024-03-02T14:29:22;13.70;1.00
11609;DHT22;5860;52.018;8.536;2024-03-02T14:31:48;13.70;1.00
11609;DHT22;5860;52.018;8.536;2024-03-02T14:34:15;13.60;1.00
11609;DHT22;5860;52.018;8.536;2024-03-02T14:36:42;13.50;1.00
11609;DHT22;5860;52.018;8.536;2024-03-02T14:39:11;13.50;1.00
11609;DHT22;5860;52.018;8.536;2024-03-02T14:41:38;13.50;1.00
11609;DHT22;5860;52.018;8.536;2024-03-02T14:44:05;13.50;1.00
11609;DHT22;5860;52.018;8.536;2024-03-02T14:46:33;13.50;1.00
11609;DHT22;5860;52.018;8.536;2024-03-02T14:49:00;13.40;1.00
11609;DHT22;5860;52.018;8.536;2024-03-02T14:51:27;13.40;1.00
11609;DHT22;5860;52.018;8.536;2024-03-02T14:53:56;13.40;1.00
11609;DHT22;5860;52.018;8.536;2024-03-02T14:56:23;13.40;1.00
11609;DHT22;5860;52.018;8.536;2024-03-02T14:58:50;13.40;1.00
11609;DHT22;5860;52.018;8.536;2024-03-02T15:01:17;13.40;1.00
11609;DHT22;5860;52.018;8.536;2024-03-02T15:03:45;13.40;1.00
11609;DHT22;5860;52.018;8.536;2024-03-02T15:06:12;13.50;1.00
11609;DHT22;5860;52.018;8.536;2024-03-02T15:08:39;13.40;1.00
11609;DHT22;5860;52.018;8.536;2024-03-02T15:11:08;13.50;1.00
11609;DHT22;5860;52.018;8.536;2024-03-02T15:13:36;13.50;1.00
11609;DHT22;5860;52.018;8.536;2024-03-02T15:16:03;13.60;1.00
11609;DHT22;5860;52.018;8.536;2024-03-02T15:18:30;13.40;1.00
11609;DHT22;5860;52.018;8.536;2024-03-02T15:20:57;13.40;1.00
11609;DHT22;5860;52.018;8.536;2024-03-02T15:23:24;13.40;1.00
11609;DHT22;5860;52.018;8.536;2024-03-02T15:25:51;13.40;1.00
11609;DHT22;5860;52.018;8.536;2024-03-02T15:28:18;13.40;1.00
11609;DHT22;5860;52.018;8.536;2024-03-02T15:30:45;13.40;1.00
11609;DHT22;5860;52.018;8.536;2024-03-02T15:33:12;13.30;1.00
11609;DHT22;5860;52.018;8.536;2024-03-02T15:35:39;13.30;1.00
11609;DHT22;5860;52.018;8.536;2024-03-02T15:38:07;13.20;1.00
11609;DHT22;5860;52.018;8.536;2024-03-02T15:40:50;13.20;1.00
11609;DHT22;5860;52.018;8.536;2024-03-02T15:43:17;13.20;1.00
11609;DHT22;5860;52.018;8.536;2024-03-02T15:45:44;13.00;1.00
11609;DHT22;5860;52.018;8.536;2024-03-02T15:48:11;13.00;1.00
11609;DHT22;5860;52.018;8.536;2024-03-02T15:50:38;12.90;1.00
11609;DHT22;5860;52.018;8.536;2024-03-02T15:53:05;13.00;1.00
11609;DHT22;5860;52.018;8.536;2024-03-02T15:55:33;13.00;1.00
11609;DHT22;5860;52.018;8.536;2024-03-02T15:58:02;12.80;1.00
11609;DHT22;5860;52.018;8.536;2024-03-02T16:00:32;12.70;1.00
11609;DHT22;5860;52.018;8.536;2024-03-02T16:02:59;12.70;1.00
11609;DHT22;5860;52.018;8.536;2024-03-02T16:05:26;12.70;1.00
11609;DHT22;5860;52.018;8.536;2024-03-02T16:07:53;12.50;1.00
11609;DHT22;5860;52.018;8.536;2024-03-02T16:10:19;12.40;1.00
11609;DHT22;5860;52.018;8.536;2024-03-02T16:12:46;12.40;1.00
11609;DHT22;5860;52.018;8.536;2024-03-02T16:15:14;12.20;1.00
11609;DHT22;5860;52.018;8.536;2024-03-02T16:17:41;12.10;1.00
11609;DHT22;5860;52.018;8.536;2024-03-02T16:20:08;12.40;1.00
11609;DHT22;5860;52.018;8.536;2024-03-02T16:22:36;12.30;1.00
11609;DHT22;5860;52.018;8.536;2024-03-02T16:25:04;12.20;1.00